Airfield :
LOGIN :

Register | Disclaimer

   EN    FR    IT 

 










Legend :    VFR   Marginal VFR   IFR   Intensive IFR   Very Intensive IFR
Visi :
Ceiling :
>= 8 km
>= 3000ft
5 to 8 km
1000 to 3000 ft
1500m to 5 km
500 to 1000 ft
800 to 1500m
200 to 500 ft
< 800m
< 200 ft
Symbols :   Thunderstorms  Fog  Heavy snow  Heavy precipitations  Wind > 20 kt
SIGMETs :     Misc.  Thunderstorms  Icing  Turbulence  Mountain Waves  Volcanic Ashes







- Airport Elevation : 106 ft
- IATA code : XDA
- Download approach charts


LFBY - Dax Seyresse

CURRENT METAR :
  • 190500Z AUTO 05006KT 4700 // ////// 05/04 Q1007

EXPIRED METARs :
  • 190430Z AUTO 05005KT 6000 // NSC 06/05 Q1007
  • 190400Z AUTO 04005KT 6000 // ////// 06/05 Q1007
  • 190330Z AUTO 05004KT 4400 // ////// 06/05 Q1007
  • 190300Z AUTO 06005KT 2800 // ////// 06/05 Q1007
  • 190230Z AUTO 04007KT 2400 // ////// 07/05 Q1007

Expired Forecast.
No reported NOTAMs for that airfield.
2 SIGMETs reported for the Bordeaux FIR (LFBB) :
 
Severe turbulence
LFBB SIGMET 2 VALID 190400/190600 LFPW
LFBB BORDEAUX FIR/UIR SEV TURB FCST WI N4245 W00100 - N4300 W00145 - N4400 W00145 - N4345 W00100 - N4245 W00100 FL180/320 MOV S 10KT WKN=
Severe turbulence
LFBB SIGMET 1 VALID 190300/190700 LFPW
LFBB BORDEAUX FIR/UIR SEV TURB FCST WI N4500 W00145 - N4545 W00145 - N4545 E00130 - N4615 E00300 - N4500 E00245 - N4445 E00145 - N4445 W00115 - N4500 W00145 FL200/270 MOV S 20KT NC=



MET'MAP, your aeronautical weather chart ! - Copyright ORBIFLY December 2007 - Disclaimer

ORBIFLY MET'MAP TEAM :

Programming & Development : Alexandra Zaïnal
Concept & Development : Baudouin d'Aumeries
Co-Development & Prog : Marc-Olivier Méhu
Technical & hardware support : Manuel Goepfert

Contact : metmap@orbifly.com




SOURCES & CREDITS :

   NOAA